Time;durP1;ratioP1;P1;durP2;ratioP2;P2;SDS_P1;SDS_P2;PMS_P1;PMS_P2;Temp;Humidity;BMP_temperature;BMP_pressure;BME280_temperature;BME280_humidity;BME280_pressure;Samples;Min_cycle;Max_cycle;Signal;HPM_P1;HPM_P2
2023/05/14 00:01:40;;;;;;;13.70;12.20;;;;;;;13.30;87.22;101930.50;4957073;29;20561;-75
2023/05/14 00:04:06;;;;;;;14.43;11.43;;;;;;;13.25;87.52;101927.31;4957175;29;20486;-75
2023/05/14 00:06:31;;;;;;;15.13;12.20;;;;;;;13.06;87.17;101910.16;4957237;29;20063;-71
2023/05/14 00:08:57;;;;;;;13.57;12.15;;;;;;;13.14;88.18;101933.91;4957374;29;20059;-75
2023/05/14 00:11:22;;;;;;;16.83;12.45;;;;;;;13.00;88.78;101923.50;4957302;29;20027;-74
2023/05/14 00:13:48;;;;;;;13.63;12.23;;;;;;;12.93;90.00;101929.94;4957214;29;20038;-74
2023/05/14 00:16:14;;;;;;;15.75;13.27;;;;;;;12.98;90.21;101930.53;4957065;29;20034;-75
2023/05/14 00:18:40;;;;;;;17.00;13.90;;;;;;;12.93;91.06;101928.16;4956946;29;20055;-74
2023/05/14 00:21:05;;;;;;;16.15;13.85;;;;;;;12.93;90.38;101919.56;4957013;29;20106;-78
2023/05/14 00:23:30;;;;;;;19.08;13.88;;;;;;;12.86;90.72;101911.28;4956898;29;20402;-72
2023/05/14 00:25:56;;;;;;;15.05;13.45;;;;;;;12.88;90.02;101913.78;4957555;29;20031;-74
2023/05/14 00:28:21;;;;;;;15.98;13.68;;;;;;;12.94;90.36;101926.41;4957096;28;20110;-74
2023/05/14 00:30:46;;;;;;;15.73;14.02;;;;;;;12.86;91.12;101921.63;4939351;29;20470;-74
2023/05/14 00:33:12;;;;;;;17.80;14.73;;;;;;;12.71;91.01;101906.13;4956960;29;20526;-72
2023/05/14 00:35:37;;;;;;;16.88;14.90;;;;;;;12.80;91.14;101922.00;4956758;29;20147;-75
2023/05/14 00:38:03;;;;;;;16.45;14.85;;;;;;;12.74;91.42;101917.13;4956969;29;20057;-74
2023/05/14 00:40:28;;;;;;;15.95;13.85;;;;;;;12.67;93.00;101917.53;4956997;29;20471;-74
2023/05/14 00:42:54;;;;;;;16.20;14.43;;;;;;;12.43;92.95;101873.09;4956630;29;20486;-75
2023/05/14 00:45:20;;;;;;;17.70;14.55;;;;;;;12.36;94.14;101877.75;4956872;29;20106;-74
2023/05/14 00:47:46;;;;;;;16.60;14.90;;;;;;;12.39;93.23;101885.38;4956473;29;20106;-75
2023/05/14 00:50:13;;;;;;;17.23;15.43;;;;;;;12.44;93.54;101895.47;4956632;29;20032;-77
2023/05/14 00:52:39;;;;;;;17.15;15.38;;;;;;;12.42;94.04;101903.34;4956572;29;20023;-81
2023/05/14 00:55:06;;;;;;;18.10;16.25;;;;;;;12.33;94.88;101904.66;4956711;29;20114;-75
2023/05/14 00:57:32;;;;;;;17.08;15.32;;;;;;;12.17;96.30;101900.38;4956435;29;20410;-75
2023/05/14 00:59:58;;;;;;;18.92;15.98;;;;;;;11.90;95.75;101862.06;4956220;29;20078;-75
2023/05/14 01:02:23;;;;;;;17.88;15.93;;;;;;;12.12;96.13;101892.84;4956270;29;20078;-75
2023/05/14 01:04:50;;;;;;;16.98;15.20;;;;;;;11.97;96.72;101878.09;4956185;29;20031;-75
2023/05/14 01:07:39;;;;;;;22.70;18.05;;;;;;;12.10;96.54;101901.63;4956458;29;20402;-75
2023/05/14 01:10:12;;;;;;;19.33;17.30;;;;;;;12.10;96.90;101899.03;4956065;29;20035;-75
2023/05/14 01:12:47;;;;;;;20.20;17.73;;;;;;;12.07;97.23;101902.59;4956025;29;20121;-75
2023/05/14 01:15:22;;;;;;;19.75;17.75;;;;;;;11.77;97.97;101869.59;4955896;29;20019;-75
2023/05/14 01:17:54;;;;;;;19.63;17.27;;;;;;;11.96;97.66;101897.13;4956051;29;20027;-75
2023/05/14 01:20:20;;;;;;;20.52;18.35;;;;;;;11.93;98.17;101903.31;4955949;29;20383;-74
2023/05/14 01:22:45;;;;;;;22.38;17.38;;;;;;;11.71;99.49;101879.44;4938456;29;20127;-77
2023/05/14 01:25:11;;;;;;;19.65;17.65;;;;;;;11.76;100.00;101890.38;4955728;29;20035;-77
2023/05/14 01:28:03;;;;;;;20.63;17.65;;;;;;;11.68;100.00;101890.75;4955723;29;20032;-77
2023/05/14 01:30:55;;;;;;;19.65;17.50;;;;;;;11.51;100.00;101874.44;4955767;29;20032;-75
2023/05/14 01:33:23;;;;;;;22.00;19.75;;;;;;;11.54;100.00;101882.03;4859379;29;20116;-74
2023/05/14 01:35:52;;;;;;;21.42;18.05;;;;;;;11.46;100.00;101885.00;4859156;29;20038;-74
2023/05/14 01:38:18;;;;;;;20.90;18.80;;;;;;;11.49;100.00;101890.00;4859121;29;20049;-75
2023/05/14 01:40:45;;;;;;;23.52;19.73;;;;;;;11.46;100.00;101885.00;4858945;29;20040;-74
2023/05/14 01:43:11;;;;;;;21.40;18.27;;;;;;;11.50;100.00;101889.09;4859109;29;20083;-75
2023/05/14 01:45:36;;;;;;;23.05;20.38;;;;;;;11.34;100.00;101864.91;4859223;29;20061;-74
2023/05/14 01:48:03;;;;;;;22.40;20.10;;;;;;;11.31;100.00;101865.91;4859005;29;20510;-74
2023/05/14 01:50:28;;;;;;;21.75;19.50;;;;;;;11.40;100.00;101880.09;4858955;29;20056;-74
2023/05/14 01:52:55;;;;;;;22.10;19.65;;;;;;;11.34;100.00;101880.44;4859142;29;20506;-75
2023/05/14 01:55:23;;;;;;;23.60;20.50;;;;;;;11.37;100.00;101888.03;4859004;29;20033;-75
2023/05/14 01:57:52;;;;;;;22.27;20.05;;;;;;;11.27;100.00;101877.28;4858807;29;20045;-75
2023/05/14 02:00:17;;;;;;;21.92;19.73;;;;;;;11.26;100.00;101879.97;4858369;29;20062;-74
2023/05/14 02:02:43;;;;;;;21.90;19.48;;;;;;;11.25;100.00;101878.28;4858861;29;20034;-79
2023/05/14 02:05:09;;;;;;;22.20;19.25;;;;;;;11.11;100.00;101866.03;4858839;29;20048;-87
2023/05/14 02:07:35;;;;;;;22.27;19.98;;;;;;;11.08;100.00;101869.59;4858680;29;20029;-88
2023/05/14 02:10:00;;;;;;;23.02;19.55;;;;;;;11.05;100.00;101864.59;4900311;28;20031;-83
2023/05/14 02:12:26;;;;;;;22.75;20.35;;;;;;;11.07;100.00;101875.69;4974259;28;20022;-87
2023/05/14 02:14:51;;;;;;;21.70;19.50;;;;;;;11.02;100.00;101862.16;4974318;28;20154;-82
2023/05/14 02:17:16;;;;;;;22.13;19.77;;;;;;;11.16;100.00;101875.25;4974292;28;20158;-87
2023/05/14 02:19:43;;;;;;;23.00;20.52;;;;;;;11.11;100.00;101866.88;4974227;28;20141;-85
2023/05/14 02:22:08;;;;;;;22.67;20.27;;;;;;;11.07;100.00;101861.91;4974056;28;20031;-87
2023/05/14 02:24:34;;;;;;;23.05;20.65;;;;;;;11.08;100.00;101864.44;4974025;28;20034;-88
2023/05/14 02:26:59;;;;;;;23.10;20.88;;;;;;;11.04;100.00;101869.84;4974186;28;20027;-88
2023/05/14 02:29:26;;;;;;;23.92;20.13;;;;;;;10.76;100.00;101819.47;4956877;28;20033;-79
2023/05/14 02:31:51;;;;;;;22.65;20.35;;;;;;;10.99;100.00;101871.78;4974171;28;20027;-88
2023/05/14 02:34:17;;;;;;;23.17;20.65;;;;;;;10.86;100.00;101845.69;4974067;28;20026;-88
2023/05/14 02:36:42;;;;;;;25.10;21.23;;;;;;;10.82;100.00;101841.59;4973995;28;20054;-88
2023/05/14 02:39:07;;;;;;;24.50;21.95;;;;;;;10.89;100.00;101861.06;4973803;28;20487;-88
2023/05/14 02:41:33;;;;;;;26.30;21.73;;;;;;;10.93;100.00;101861.75;4973773;28;20027;-88
2023/05/14 02:43:58;;;;;;;25.52;21.98;;;;;;;10.91;100.00;101861.81;4973860;28;20054;-88
2023/05/14 02:46:24;;;;;;;27.33;23.48;;;;;;;10.86;100.00;101867.22;4974024;28;20027;-86
2023/05/14 02:48:49;;;;;;;24.98;22.23;;;;;;;10.81;100.00;101855.41;4974073;28;20387;-85
2023/05/14 02:51:15;;;;;;;26.15;22.02;;;;;;;10.85;100.00;101864.72;4972726;28;20104;-88
2023/05/14 02:53:40;;;;;;;25.73;23.02;;;;;;;10.71;100.00;101843.84;4973695;28;20030;-83
2023/05/14 02:56:06;;;;;;;28.25;24.55;;;;;;;10.75;100.00;101874.63;4973629;28;20027;-87
2023/05/14 02:58:32;;;;;;;28.02;23.30;;;;;;;10.69;100.00;101862.00;4973709;28;20054;-87
2023/05/14 03:00:57;;;;;;;27.83;24.33;;;;;;;10.59;100.00;101845.25;4973691;28;20034;-88
2023/05/14 03:03:23;;;;;;;28.10;25.10;;;;;;;10.64;100.00;101863.97;4973836;28;20159;-86
2023/05/14 03:05:48;;;;;;;27.77;24.30;;;;;;;10.59;100.00;101853.84;4973528;28;20156;-89
2023/05/14 03:08:14;;;;;;;27.60;24.58;;;;;;;10.61;100.00;101857.19;4973703;28;20023;-86
2023/05/14 03:10:39;;;;;;;30.83;25.48;;;;;;;10.56;100.00;101846.25;4973425;28;20038;-86
2023/05/14 03:13:05;;;;;;;29.50;24.02;;;;;;;10.50;100.00;101843.94;4973721;28;20022;-84
2023/05/14 03:15:30;;;;;;;28.83;25.08;;;;;;;10.36;100.00;101836.00;4973700;28;20034;-87
2023/05/14 03:17:55;;;;;;;28.45;25.38;;;;;;;10.46;100.00;101850.16;4973756;28;20030;-75
2023/05/14 03:20:23;;;;;;;28.00;24.23;;;;;;;10.45;100.00;101853.66;4955683;28;20391;-88
2023/05/14 03:22:48;;;;;;;31.48;24.73;;;;;;;10.44;100.00;101851.16;4973248;28;20041;-87
2023/05/14 03:25:13;;;;;;;30.30;25.27;;;;;;;10.39;100.00;101850.50;4973297;28;20093;-88
2023/05/14 03:27:39;;;;;;;34.25;25.67;;;;;;;10.37;100.00;101849.75;4973591;28;20371;-87
2023/05/14 03:30:05;;;;;;;29.55;24.77;;;;;;;10.06;100.00;101802.91;4973406;28;20065;-87
2023/05/14 03:32:31;;;;;;;29.25;25.15;;;;;;;10.16;100.00;101820.56;4973303;28;20046;-75
2023/05/14 03:34:56;;;;;;;29.95;25.85;;;;;;;10.28;100.00;101845.84;4973412;28;20023;-74
2023/05/14 03:37:22;;;;;;;29.63;26.08;;;;;;;10.16;100.00;101823.13;4973312;28;20098;-75
2023/05/14 03:39:47;;;;;;;33.00;25.90;;;;;;;10.26;100.00;101842.50;4973352;28;20425;-75
2023/05/14 03:42:12;;;;;;;31.58;26.20;;;;;;;10.24;100.00;101837.41;4973145;28;20031;-75
2023/05/14 03:44:38;;;;;;;31.27;25.45;;;;;;;10.07;100.00;101811.47;4973426;28;20031;-75
2023/05/14 03:47:03;;;;;;;29.10;25.40;;;;;;;10.18;100.00;101840.22;4973243;28;20031;-74
2023/05/14 03:49:29;;;;;;;28.13;24.08;;;;;;;10.10;100.00;101829.41;4956145;28;20051;-74
2023/05/14 03:51:54;;;;;;;30.52;27.20;;;;;;;10.15;100.00;101837.78;4973300;28;20034;-74
2023/05/14 03:54:20;;;;;;;32.08;27.13;;;;;;;10.04;100.00;101833.09;4973179;28;20042;-76
2023/05/14 03:56:45;;;;;;;31.80;26.25;;;;;;;10.08;100.00;101844.13;4973070;28;20022;-74
2023/05/14 03:59:10;;;;;;;31.50;27.05;;;;;;;9.99;100.00;101824.72;4973039;28;20058;-77
2023/05/14 04:01:35;;;;;;;33.85;27.17;;;;;;;10.07;100.00;101832.13;4973102;28;20023;-79
2023/05/14 04:04:01;;;;;;;31.40;27.15;;;;;;;10.07;100.00;101838.13;4976431;28;20463;-75
2023/05/14 04:06:26;;;;;;;34.03;26.83;;;;;;;9.95;100.00;101814.63;4976337;28;20030;-73
2023/05/14 04:08:52;;;;;;;32.72;26.95;;;;;;;10.09;100.00;101840.63;4976570;28;20030;-75
2023/05/14 04:11:17;;;;;;;35.17;27.67;;;;;;;10.09;100.00;101839.78;4976417;28;20375;-75
2023/05/14 04:13:42;;;;;;;29.42;26.15;;;;;;;9.97;100.00;101823.94;4976375;28;20038;-74
2023/05/14 04:16:07;;;;;;;31.45;26.58;;;;;;;10.09;100.00;101832.06;4976585;28;20031;-74
2023/05/14 04:18:35;;;;;;;31.45;27.60;;;;;;;9.99;100.00;101809.22;4976499;28;20030;-76
2023/05/14 04:21:01;;;;;;;31.40;27.15;;;;;;;10.12;100.00;101834.47;4976330;28;20066;-77
2023/05/14 04:23:27;;;;;;;36.13;27.30;;;;;;;10.17;100.00;101835.97;4975987;28;20167;-74
2023/05/14 04:25:52;;;;;;;31.80;26.52;;;;;;;10.16;100.00;101836.88;4976323;28;20034;-74
2023/05/14 04:28:18;;;;;;;32.17;25.75;;;;;;;10.10;100.00;101819.06;4976006;28;20035;-75
2023/05/14 04:30:44;;;;;;;29.98;25.42;;;;;;;10.15;100.00;101824.88;4976178;28;20019;-76
2023/05/14 04:33:09;;;;;;;31.98;26.33;;;;;;;10.26;100.00;101838.16;4976193;28;20388;-77
2023/05/14 04:35:35;;;;;;;29.35;25.48;;;;;;;10.35;100.00;101836.91;4976216;28;20027;-79
2023/05/14 04:38:00;;;;;;;31.20;25.33;;;;;;;10.25;100.00;101817.59;4976003;28;20030;-75
2023/05/14 04:40:25;;;;;;;31.02;23.73;;;;;;;10.25;100.00;101810.69;4976094;28;20097;-77
2023/05/14 04:42:51;;;;;;;29.30;23.80;;;;;;;10.45;100.00;101839.91;4975810;28;20470;-75
2023/05/14 04:45:16;;;;;;;31.38;23.52;;;;;;;10.52;100.00;101841.28;4975930;28;20026;-75
2023/05/14 04:47:41;;;;;;;29.88;24.58;;;;;;;10.56;100.00;101838.50;4975994;28;20035;-75
2023/05/14 04:50:08;;;;;;;28.60;23.27;;;;;;;10.59;100.00;101820.25;4975821;28;20102;-74
2023/05/14 04:52:34;;;;;;;30.90;24.23;;;;;;;10.67;100.00;101834.56;4975253;28;20494;-75
2023/05/14 04:54:59;;;;;;;30.98;24.27;;;;;;;10.55;100.00;101805.84;4975772;28;20027;-76
2023/05/14 04:57:25;;;;;;;30.52;23.50;;;;;;;10.79;100.00;101841.72;4975799;28;20478;-75
2023/05/14 04:59:51;;;;;;;29.88;23.00;;;;;;;10.90;100.00;101834.28;4975237;28;20090;-73
2023/05/14 05:02:17;;;;;;;27.73;21.95;;;;;;;11.04;100.00;101831.91;4975658;28;20034;-75
2023/05/14 05:04:42;;;;;;;27.00;22.73;;;;;;;11.13;100.00;101830.63;4975625;28;20129;-75
2023/05/14 05:07:07;;;;;;;25.23;22.08;;;;;;;11.08;100.00;101815.31;4975499;28;20033;-76
2023/05/14 05:09:33;;;;;;;27.45;23.17;;;;;;;11.78;100.00;101841.94;4975456;28;20037;-77
2023/05/14 05:12:00;;;;;;;26.95;21.33;;;;;;;12.66;100.00;101838.13;4975493;28;20031;-74
2023/05/14 05:14:25;;;;;;;25.02;19.30;;;;;;;13.40;96.13;101802.75;4974536;28;20019;-88
2023/05/14 05:16:51;;;;;;;22.05;18.88;;;;;;;14.46;89.50;101817.09;4975370;28;20129;-87
2023/05/14 05:19:16;;;;;;;20.88;18.25;;;;;;;15.26;84.83;101810.13;4975454;28;20083;-88
2023/05/14 05:21:41;;;;;;;24.13;17.30;;;;;;;15.78;81.72;101821.28;4975528;28;20027;-79
2023/05/14 05:24:07;;;;;;;18.48;16.52;;;;;;;16.28;76.17;101813.44;4975512;28;20026;-75
2023/05/14 05:26:35;;;;;;;20.52;16.00;;;;;;;16.42;76.46;101818.53;4975329;28;20094;-80
2023/05/14 05:29:01;;;;;;;18.10;15.80;;;;;;;16.81;75.06;101851.34;4976169;28;20034;-79
2023/05/14 05:31:26;;;;;;;20.15;15.30;;;;;;;17.38;73.56;101832.28;4975100;28;20022;-76
2023/05/14 05:33:51;;;;;;;19.23;15.23;;;;;;;17.95;69.55;101836.63;4975071;28;20109;-75
2023/05/14 05:36:17;;;;;;;17.35;15.05;;;;;;;18.24;66.61;101786.44;4975109;28;20069;-76
2023/05/14 05:38:42;;;;;;;18.27;14.43;;;;;;;18.87;65.62;101839.75;4974729;28;20023;-78
2023/05/14 05:41:07;;;;;;;17.52;14.20;;;;;;;18.87;64.53;101840.59;4975002;28;20062;-75
2023/05/14 05:43:33;;;;;;;16.02;14.27;;;;;;;18.55;64.18;101845.78;4974832;28;20364;-75
2023/05/14 05:45:59;;;;;;;18.77;15.75;;;;;;;18.22;64.97;101833.63;4974516;28;20027;-76
2023/05/14 05:48:25;;;;;;;16.75;14.95;;;;;;;17.80;66.55;101852.66;4974780;28;20558;-76
2023/05/14 05:50:50;;;;;;;18.73;15.32;;;;;;;17.81;67.18;101856.97;4974671;28;20137;-75
2023/05/14 05:53:16;;;;;;;18.80;15.13;;;;;;;17.75;67.24;101850.41;4974631;28;20050;-76
2023/05/14 05:55:41;;;;;;;19.40;15.43;;;;;;;17.83;66.90;101861.09;4974710;28;20062;-73
2023/05/14 05:58:07;;;;;;;18.33;15.02;;;;;;;17.72;66.42;101861.09;4974448;28;20394;-76
2023/05/14 06:00:32;;;;;;;19.30;15.15;;;;;;;17.36;67.62;101843.81;4974458;28;20038;-75
2023/05/14 06:02:58;;;;;;;17.55;14.98;;;;;;;17.30;68.99;101847.69;4974474;28;20040;-75
2023/05/14 06:05:23;;;;;;;20.00;14.95;;;;;;;17.78;67.04;101847.56;4974791;28;20068;-78
2023/05/14 06:07:48;;;;;;;19.50;15.27;;;;;;;18.28;65.43;101859.28;4974549;28;20561;-76
2023/05/14 06:10:14;;;;;;;17.63;15.70;;;;;;;18.92;63.56;101859.38;4974130;28;20065;-79
2023/05/14 06:12:39;;;;;;;17.88;15.20;;;;;;;20.14;59.55;101857.84;4974344;28;20027;-75
2023/05/14 06:15:05;;;;;;;16.77;14.73;;;;;;;21.00;56.30;101856.34;4974133;28;20478;-75
2023/05/14 06:17:31;;;;;;;21.77;14.35;;;;;;;21.56;53.80;101866.09;4974275;28;20506;-74
2023/05/14 06:19:56;;;;;;;18.08;14.48;;;;;;;21.90;52.91;101866.38;4974242;28;20026;-75
2023/05/14 06:22:21;;;;;;;18.23;14.10;;;;;;;22.08;52.26;101872.56;4974426;28;20030;-76
2023/05/14 06:24:47;;;;;;;17.27;13.65;;;;;;;22.70;49.60;101843.75;4943017;28;20027;-74
2023/05/14 06:27:12;;;;;;;15.35;13.55;;;;;;;22.86;49.96;101865.00;4936376;29;20035;-72
2023/05/14 06:29:37;;;;;;;17.25;13.50;;;;;;;23.40;48.02;101868.34;4935515;29;20039;-76
2023/05/14 06:32:03;;;;;;;14.93;12.88;;;;;;;24.00;47.01;101857.84;4935600;29;20047;-76
2023/05/14 06:34:29;;;;;;;15.73;12.82;;;;;;;23.87;45.65;101866.16;4935538;29;20023;-75
2023/05/14 06:36:56;;;;;;;16.50;13.48;;;;;;;23.54;47.78;101870.44;4935742;29;20091;-74
2023/05/14 06:39:21;;;;;;;15.82;13.10;;;;;;;24.05;46.18;101874.00;4935245;29;20032;-75
2023/05/14 06:41:46;;;;;;;17.60;13.50;;;;;;;24.38;45.11;101868.84;4935249;29;20035;-80
2023/05/14 06:44:12;;;;;;;19.42;13.68;;;;;;;24.65;44.88;101862.44;4935497;29;20059;-74
2023/05/14 06:46:37;;;;;;;15.48;13.43;;;;;;;25.08;44.05;101871.94;4935351;29;20036;-76
2023/05/14 06:49:02;;;;;;;15.23;13.40;;;;;;;23.59;45.43;101851.53;4935327;29;20027;-76
2023/05/14 06:51:28;;;;;;;17.20;14.45;;;;;;;22.89;48.17;101865.50;4935486;29;20075;-75
2023/05/14 06:53:56;;;;;;;16.33;13.52;;;;;;;22.80;50.63;101860.28;4935499;29;20391;-76
2023/05/14 06:56:30;;;;;;;16.63;13.85;;;;;;;23.14;47.59;101844.63;4935205;29;20038;-77
2023/05/14 06:58:56;;;;;;;16.35;14.07;;;;;;;23.40;48.28;101861.28;4918307;29;20070;-78
2023/05/14 07:01:21;;;;;;;15.18;13.50;;;;;;;23.59;47.75;101818.06;4935713;29;20488;-76
2023/05/14 07:03:46;;;;;;;16.35;12.75;;;;;;;23.86;46.95;101838.13;4935753;29;20536;-77
2023/05/14 07:06:12;;;;;;;17.67;13.43;;;;;;;24.10;46.75;101862.97;4935356;29;20106;-77
2023/05/14 07:08:38;;;;;;;14.48;12.98;;;;;;;24.24;46.03;101865.00;4935387;29;20607;-77
2023/05/14 07:11:03;;;;;;;17.40;13.48;;;;;;;24.51;44.43;101858.66;4935136;29;20086;-76
2023/05/14 07:13:28;;;;;;;15.90;14.00;;;;;;;24.49;44.99;101866.75;4935414;29;20380;-77
2023/05/14 07:15:54;;;;;;;16.92;14.10;;;;;;;24.53;44.41;101867.22;4935395;29;20035;-79
2023/05/14 07:18:21;;;;;;;16.08;13.70;;;;;;;24.29;44.76;101860.06;4918424;29;20528;-76
2023/05/14 07:20:46;;;;;;;15.95;13.20;;;;;;;24.90;44.48;101853.56;4935303;29;20032;-80
2023/05/14 07:23:12;;;;;;;16.08;13.82;;;;;;;25.56;43.25;101849.00;4935146;29;20035;-77
2023/05/14 07:25:37;;;;;;;15.93;13.50;;;;;;;24.67;43.70;101837.53;4935233;29;20463;-77
2023/05/14 07:28:03;;;;;;;17.92;13.82;;;;;;;23.26;48.12;101842.56;4935074;29;20039;-77
2023/05/14 07:30:28;;;;;;;16.58;14.45;;;;;;;22.05;49.70;101838.63;4935236;29;20110;-77
2023/05/14 07:32:53;;;;;;;17.13;13.82;;;;;;;21.09;53.19;101837.94;4935149;29;20108;-80
2023/05/14 07:35:19;;;;;;;16.13;14.07;;;;;;;20.32;55.48;101857.06;4934978;29;20114;-76
2023/05/14 07:37:44;;;;;;;18.35;14.80;;;;;;;19.61;57.73;101856.28;4936779;29;20047;-78
2023/05/14 07:40:10;;;;;;;17.40;14.73;;;;;;;19.06;61.29;101858.22;4938906;29;20028;-78
2023/05/14 07:42:35;;;;;;;17.63;14.82;;;;;;;18.73;61.46;101840.91;4938850;29;20032;-81
2023/05/14 07:45:01;;;;;;;17.42;15.32;;;;;;;18.51;62.61;101846.19;4938775;29;20071;-78
2023/05/14 07:47:26;;;;;;;17.90;15.77;;;;;;;18.42;64.31;101860.00;4938466;29;20043;-78
2023/05/14 07:49:55;;;;;;;17.60;14.80;;;;;;;18.03;65.73;101826.41;4938375;29;20024;-80
2023/05/14 07:52:21;;;;;;;18.98;15.38;;;;;;;18.07;66.70;101860.97;4938259;29;20126;-78
2023/05/14 07:54:46;;;;;;;19.42;15.80;;;;;;;17.96;67.18;101858.38;4951223;28;20110;-79
2023/05/14 07:57:11;;;;;;;19.23;15.68;;;;;;;17.78;66.77;101850.16;4957651;29;20031;-75
2023/05/14 07:59:37;;;;;;;19.15;15.73;;;;;;;17.81;66.60;101857.78;4970525;28;20082;-75
2023/05/14 08:02:02;;;;;;;20.55;15.52;;;;;;;17.92;66.38;101852.56;4976580;28;20466;-74
2023/05/14 08:04:28;;;;;;;17.92;14.90;;;;;;;18.01;68.40;101827.50;4958868;28;20479;-76
2023/05/14 08:06:57;;;;;;;19.13;15.18;;;;;;;18.39;64.94;101855.84;4973359;28;20026;-76
2023/05/14 08:09:22;;;;;;;18.08;14.95;;;;;;;18.31;65.32;101853.84;4920918;29;20040;-78
2023/05/14 08:11:48;;;;;;;17.08;13.90;;;;;;;18.10;64.55;101844.25;4938151;29;20086;-77
2023/05/14 08:14:13;;;;;;;16.90;14.32;;;;;;;17.89;65.23;101851.94;4937964;29;20111;-77
2023/05/14 08:16:38;;;;;;;19.05;14.88;;;;;;;17.71;66.47;101851.59;4937925;29;20123;-78
2023/05/14 08:19:03;;;;;;;17.33;14.50;;;;;;;17.52;67.37;101856.53;4937736;29;20036;-74
2023/05/14 08:21:29;;;;;;;19.17;15.32;;;;;;;17.31;69.13;101838.13;4937797;29;20028;-80
2023/05/14 08:23:54;;;;;;;18.65;15.48;;;;;;;17.47;68.10;101851.66;4937972;29;20035;-85
2023/05/14 08:26:20;;;;;;;19.67;14.98;;;;;;;17.41;67.78;101850.34;4937907;29;20446;-88
2023/05/14 08:28:46;;;;;;;17.25;14.63;;;;;;;17.43;67.74;101835.41;4937822;29;20023;-89
2023/05/14 08:31:13;;;;;;;16.50;13.95;;;;;;;17.61;69.49;101845.41;4937720;29;20168;-88
2023/05/14 08:33:38;;;;;;;19.30;15.43;;;;;;;17.50;67.47;101846.19;4937960;29;20464;-81
2023/05/14 08:36:04;;;;;;;17.42;15.13;;;;;;;17.48;68.39;101842.88;4937595;29;20048;-79
2023/05/14 08:38:30;;;;;;;16.48;14.60;;;;;;;17.44;67.75;101824.00;4938032;29;20023;-86
2023/05/14 08:40:59;;;;;;;17.83;14.63;;;;;;;17.80;69.69;101832.63;4937698;29;20853;-87
2023/05/14 08:43:29;;;;;;;18.17;14.60;;;;;;;18.06;69.24;101841.84;4937629;29;20063;-86
2023/05/14 08:45:59;;;;;;;17.27;13.80;;;;;;;18.18;67.26;101820.91;4937629;29;20381;-85
2023/05/14 08:48:30;;;;;;;15.70;13.75;;;;;;;18.51;67.01;101820.03;4937279;29;20459;-88
2023/05/14 08:50:56;;;;;;;16.73;13.35;;;;;;;18.68;66.54;101839.59;4937480;29;20032;-87
2023/05/14 08:53:22;;;;;;;15.57;12.63;;;;;;;18.54;64.84;101822.38;4937420;29;20024;-88
2023/05/14 08:55:49;;;;;;;16.10;12.95;;;;;;;18.67;65.90;101844.00;4937257;29;20030;-88
2023/05/14 08:58:15;;;;;;;16.02;13.07;;;;;;;18.78;63.51;101812.59;4937434;29;20044;-87
2023/05/14 09:00:41;;;;;;;16.30;13.13;;;;;;;18.86;62.59;101825.84;4937402;29;20075;-88
2023/05/14 09:03:07;;;;;;;15.63;12.48;;;;;;;18.63;63.17;101804.16;4937155;29;20082;-83
2023/05/14 09:05:32;;;;;;;16.08;12.55;;;;;;;18.88;64.51;101834.41;4937163;29;20069;-77
2023/05/14 09:07:58;;;;;;;14.88;12.43;;;;;;;18.97;63.34;101830.19;4937416;29;20056;-82
2023/05/14 09:10:23;;;;;;;15.05;12.30;;;;;;;18.86;63.78;101798.84;4937102;29;20059;-84
2023/05/14 09:12:49;;;;;;;18.20;12.88;;;;;;;18.79;64.79;101787.25;4920104;29;20392;-81
2023/05/14 09:15:14;;;;;;;15.48;11.85;;;;;;;18.96;65.02;101810.22;4937224;29;20050;-81
2023/05/14 09:17:39;;;;;;;20.60;12.80;;;;;;;18.91;65.16;101818.47;4936975;29;20043;-81
2023/05/14 09:20:06;;;;;;;15.45;12.18;;;;;;;18.90;65.39;101814.19;4936897;29;20119;-86
2023/05/14 09:22:31;;;;;;;19.65;12.77;;;;;;;18.71;64.08;101805.34;4936620;29;20480;-84
2023/05/14 09:25:09;;;;;;;15.68;11.90;;;;;;;18.72;64.62;101797.38;4937084;29;20047;-83
2023/05/14 09:27:35;;;;;;;16.50;12.68;;;;;;;18.59;64.08;101801.94;4936608;29;20053;-79
2023/05/14 09:30:05;;;;;;;15.35;11.73;;;;;;;18.66;66.84;101805.72;4936931;29;20032;-82
2023/05/14 09:32:35;;;;;;;13.73;11.05;;;;;;;18.57;63.60;101786.31;4936513;29;20041;-83
2023/05/14 09:35:17;;;;;;;14.60;11.85;;;;;;;18.75;63.95;101804.13;4936676;29;20087;-84
2023/05/14 09:37:45;;;;;;;13.68;10.85;;;;;;;18.84;65.75;101808.63;4936662;29;20023;-83
2023/05/14 09:40:12;;;;;;;14.15;11.73;;;;;;;18.77;61.94;101800.44;4936536;29;20547;-83
2023/05/14 09:42:37;;;;;;;13.88;10.88;;;;;;;18.74;62.65;101798.06;4936296;29;20436;-81
2023/05/14 09:45:06;;;;;;;13.60;11.00;;;;;;;18.83;66.00;101802.56;4936317;29;20035;-82
2023/05/14 09:47:31;;;;;;;14.07;11.65;;;;;;;18.69;66.44;101779.31;4940718;28;20060;-82
2023/05/14 09:49:57;;;;;;;15.90;12.27;;;;;;;18.84;66.36;101783.28;4938177;29;20043;-84
2023/05/14 09:52:23;;;;;;;12.57;11.02;;;;;;;18.94;66.22;101791.19;4955886;29;20038;-78
2023/05/14 09:54:51;;;;;;;15.77;11.93;;;;;;;18.66;63.05;101791.81;4955569;29;20098;-78
2023/05/14 09:57:16;;;;;;;15.27;11.60;;;;;;;18.71;65.65;101792.28;4955335;29;20090;-77
2023/05/14 09:59:41;;;;;;;13.45;11.48;;;;;;;18.68;63.72;101788.13;4937306;29;20047;-76
2023/05/14 10:02:15;;;;;;;13.32;10.18;;;;;;;18.84;66.17;101793.75;4955226;29;20070;-76
2023/05/14 10:04:42;;;;;;;12.75;11.20;;;;;;;19.00;63.88;101782.00;4955258;29;20054;-73
2023/05/14 10:07:07;;;;;;;15.80;10.13;;;;;;;19.05;62.75;101785.88;4955185;29;20106;-75
2023/05/14 10:09:33;;;;;;;15.60;10.55;;;;;;;18.94;63.71;101788.56;4955212;29;20440;-74
2023/05/14 10:12:00;;;;;;;14.77;11.07;;;;;;;18.70;63.08;101760.03;4954976;29;20061;-75
2023/05/14 10:14:32;;;;;;;13.55;11.48;;;;;;;18.84;62.97;101779.81;4955128;29;20028;-75
2023/05/14 10:16:59;;;;;;;14.65;10.95;;;;;;;18.95;64.15;101787.63;4955078;29;20391;-75
2023/05/14 10:19:25;;;;;;;15.60;12.27;;;;;;;18.80;64.08;101758.31;4955088;29;20031;-74
2023/05/14 10:22:06;;;;;;;11.45;9.85;;;;;;;19.02;62.04;101783.53;4954913;29;20035;-75
2023/05/14 10:24:32;;;;;;;;;;;;;;;19.04;62.47;101780.78;4955809;29;20019;-73
2023/05/14 10:26:57;;;;;;;13.55;9.93;;;;;;;18.95;60.39;101779.75;4954855;29;19922;-77
2023/05/14 10:29:34;;;;;;;13.63;9.98;;;;;;;18.92;62.67;101746.00;4955141;29;20087;-74
2023/05/14 10:32:04;;;;;;;12.73;9.20;;;;;;;19.03;59.78;101753.78;4955196;29;20031;-75
2023/05/14 10:34:40;;;;;;;12.48;9.05;;;;;;;19.20;60.89;101775.94;4954972;29;20110;-74
2023/05/14 10:37:07;;;;;;;13.30;9.60;;;;;;;19.23;61.32;101766.97;4954863;29;20046;-75
2023/05/14 10:39:54;;;;;;;14.20;9.30;;;;;;;19.27;60.65;101758.75;4952222;29;20158;-78
2023/05/14 10:42:23;;;;;;;15.55;9.43;;;;;;;19.22;60.97;101736.53;4918145;29;20070;-75
2023/05/14 10:45:00;;;;;;;14.10;9.38;;;;;;;19.46;61.73;101753.56;4935672;29;20028;-77
2023/05/14 10:47:30;;;;;;;11.93;9.75;;;;;;;19.54;60.15;101766.00;4953169;28;20030;-76
2023/05/14 10:50:02;;;;;;;12.05;9.23;;;;;;;19.36;59.27;101739.59;4974004;28;20042;-74
2023/05/14 10:52:28;;;;;;;11.15;9.40;;;;;;;19.27;60.31;101714.22;4952030;28;20110;-75
2023/05/14 10:54:55;;;;;;;13.93;9.32;;;;;;;19.66;60.79;101756.28;4936017;29;20391;-78
2023/05/14 10:57:22;;;;;;;12.00;8.88;;;;;;;19.79;60.47;101751.66;4935330;29;20472;-78
2023/05/14 10:59:52;;;;;;;12.57;9.20;;;;;;;19.83;59.30;101741.72;4935293;29;20130;-76
2023/05/14 11:02:22;;;;;;;11.10;8.25;;;;;;;20.02;61.06;101744.38;4935380;29;20054;-76
2023/05/14 11:05:15;;;;;;;12.82;8.55;;;;;;;20.08;59.87;101740.41;4935345;29;20028;-77